sensor_id;sensor_type;location;lat;lon;timestamp;P1;durP1;ratioP1;P2;durP2;ratioP2
65558;SDS011;52203;51.998;5.140;2022-10-16T00:02:20;7.82;;;2.55;;
65558;SDS011;52203;51.998;5.140;2022-10-16T00:04:45;5.65;;;2.67;;
65558;SDS011;52203;51.998;5.140;2022-10-16T00:07:11;5.95;;;2.90;;
65558;SDS011;52203;51.998;5.140;2022-10-16T00:09:36;7.18;;;2.78;;
65558;SDS011;52203;51.998;5.140;2022-10-16T00:12:02;5.57;;;2.72;;
65558;SDS011;52203;51.998;5.140;2022-10-16T00:14:29;8.07;;;2.85;;
65558;SDS011;52203;51.998;5.140;2022-10-16T00:16:55;7.82;;;3.15;;
65558;SDS011;52203;51.998;5.140;2022-10-16T00:19:20;4.85;;;2.70;;
65558;SDS011;52203;51.998;5.140;2022-10-16T00:21:46;5.95;;;3.33;;
65558;SDS011;52203;51.998;5.140;2022-10-16T00:24:12;6.50;;;3.15;;
65558;SDS011;52203;51.998;5.140;2022-10-16T00:26:37;7.20;;;3.20;;
65558;SDS011;52203;51.998;5.140;2022-10-16T00:29:04;6.25;;;3.17;;
65558;SDS011;52203;51.998;5.140;2022-10-16T00:31:30;5.95;;;2.88;;
65558;SDS011;52203;51.998;5.140;2022-10-16T00:33:56;5.50;;;3.00;;
65558;SDS011;52203;51.998;5.140;2022-10-16T00:36:22;7.25;;;3.10;;
65558;SDS011;52203;51.998;5.140;2022-10-16T00:38:51;5.18;;;2.95;;
65558;SDS011;52203;51.998;5.140;2022-10-16T00:41:21;5.75;;;2.95;;
65558;SDS011;52203;51.998;5.140;2022-10-16T00:46:22;6.30;;;3.10;;
65558;SDS011;52203;51.998;5.140;2022-10-16T00:51:48;4.75;;;2.88;;
65558;SDS011;52203;51.998;5.140;2022-10-16T00:54:24;5.97;;;2.60;;
65558;SDS011;52203;51.998;5.140;2022-10-16T00:56:52;7.20;;;2.95;;
65558;SDS011;52203;51.998;5.140;2022-10-16T00:59:38;6.78;;;3.20;;
65558;SDS011;52203;51.998;5.140;2022-10-16T01:02:06;5.10;;;2.78;;
65558;SDS011;52203;51.998;5.140;2022-10-16T01:04:47;6.05;;;3.00;;
65558;SDS011;52203;51.998;5.140;2022-10-16T01:07:36;8.30;;;2.70;;
65558;SDS011;52203;51.998;5.140;2022-10-16T01:10:27;6.13;;;2.90;;
65558;SDS011;52203;51.998;5.140;2022-10-16T01:13:06;6.28;;;3.25;;
65558;SDS011;52203;51.998;5.140;2022-10-16T01:18:34;6.15;;;2.80;;
65558;SDS011;52203;51.998;5.140;2022-10-16T01:21:04;6.18;;;3.33;;
65558;SDS011;52203;51.998;5.140;2022-10-16T01:23:40;4.72;;;2.80;;
65558;SDS011;52203;51.998;5.140;2022-10-16T01:29:14;5.97;;;2.70;;
65558;SDS011;52203;51.998;5.140;2022-10-16T01:31:48;5.32;;;2.75;;
65558;SDS011;52203;51.998;5.140;2022-10-16T01:34:25;7.10;;;2.85;;
65558;SDS011;52203;51.998;5.140;2022-10-16T01:37:00;6.88;;;2.53;;
65558;SDS011;52203;51.998;5.140;2022-10-16T01:39:31;4.82;;;2.83;;
65558;SDS011;52203;51.998;5.140;2022-10-16T01:42:11;7.15;;;2.53;;
65558;SDS011;52203;51.998;5.140;2022-10-16T01:44:41;8.65;;;2.70;;
65558;SDS011;52203;51.998;5.140;2022-10-16T01:47:10;4.35;;;2.60;;
65558;SDS011;52203;51.998;5.140;2022-10-16T01:49:39;6.05;;;2.80;;
65558;SDS011;52203;51.998;5.140;2022-10-16T01:52:07;4.40;;;2.70;;
65558;SDS011;52203;51.998;5.140;2022-10-16T01:54:37;7.07;;;2.70;;
65558;SDS011;52203;51.998;5.140;2022-10-16T01:57:07;4.88;;;2.45;;
65558;SDS011;52203;51.998;5.140;2022-10-16T01:59:34;6.75;;;2.85;;
65558;SDS011;52203;51.998;5.140;2022-10-16T02:02:09;5.75;;;2.90;;
65558;SDS011;52203;51.998;5.140;2022-10-16T02:04:40;5.10;;;2.97;;
65558;SDS011;52203;51.998;5.140;2022-10-16T02:09:35;6.93;;;3.03;;
65558;SDS011;52203;51.998;5.140;2022-10-16T02:12:15;4.85;;;2.78;;
65558;SDS011;52203;51.998;5.140;2022-10-16T02:14:49;4.28;;;2.58;;
65558;SDS011;52203;51.998;5.140;2022-10-16T02:17:15;6.45;;;2.92;;
65558;SDS011;52203;51.998;5.140;2022-10-16T02:19:42;5.53;;;3.20;;
65558;SDS011;52203;51.998;5.140;2022-10-16T02:22:09;4.65;;;2.55;;
65558;SDS011;52203;51.998;5.140;2022-10-16T02:30:07;6.47;;;2.88;;
65558;SDS011;52203;51.998;5.140;2022-10-16T02:32:44;9.65;;;3.05;;
65558;SDS011;52203;51.998;5.140;2022-10-16T02:35:11;4.72;;;2.38;;
65558;SDS011;52203;51.998;5.140;2022-10-16T02:37:38;6.97;;;2.78;;
65558;SDS011;52203;51.998;5.140;2022-10-16T02:40:05;6.03;;;2.63;;
65558;SDS011;52203;51.998;5.140;2022-10-16T02:42:33;4.75;;;2.55;;
65558;SDS011;52203;51.998;5.140;2022-10-16T02:45:00;4.82;;;2.22;;
65558;SDS011;52203;51.998;5.140;2022-10-16T02:47:26;3.92;;;2.20;;
65558;SDS011;52203;51.998;5.140;2022-10-16T02:49:51;5.22;;;2.25;;
65558;SDS011;52203;51.998;5.140;2022-10-16T02:52:17;4.78;;;2.40;;
65558;SDS011;52203;51.998;5.140;2022-10-16T02:54:43;3.70;;;2.33;;
65558;SDS011;52203;51.998;5.140;2022-10-16T02:57:08;8.77;;;2.45;;
65558;SDS011;52203;51.998;5.140;2022-10-16T02:59:34;4.53;;;2.42;;
65558;SDS011;52203;51.998;5.140;2022-10-16T03:01:59;5.22;;;2.30;;
65558;SDS011;52203;51.998;5.140;2022-10-16T03:04:25;3.67;;;2.10;;
65558;SDS011;52203;51.998;5.140;2022-10-16T03:06:51;5.15;;;2.33;;
65558;SDS011;52203;51.998;5.140;2022-10-16T03:09:16;3.63;;;2.30;;
65558;SDS011;52203;51.998;5.140;2022-10-16T03:11:42;5.30;;;2.20;;
65558;SDS011;52203;51.998;5.140;2022-10-16T03:14:07;8.27;;;2.58;;
65558;SDS011;52203;51.998;5.140;2022-10-16T03:16:33;4.32;;;2.15;;
65558;SDS011;52203;51.998;5.140;2022-10-16T03:18:58;10.85;;;3.65;;
65558;SDS011;52203;51.998;5.140;2022-10-16T03:21:24;4.88;;;2.38;;
65558;SDS011;52203;51.998;5.140;2022-10-16T03:23:49;3.90;;;2.15;;
65558;SDS011;52203;51.998;5.140;2022-10-16T03:26:15;4.07;;;2.30;;
65558;SDS011;52203;51.998;5.140;2022-10-16T03:28:41;3.40;;;1.77;;
65558;SDS011;52203;51.998;5.140;2022-10-16T03:31:06;3.85;;;1.98;;
65558;SDS011;52203;51.998;5.140;2022-10-16T03:33:33;3.78;;;1.90;;
65558;SDS011;52203;51.998;5.140;2022-10-16T03:35:58;3.50;;;1.90;;
65558;SDS011;52203;51.998;5.140;2022-10-16T03:38:24;3.25;;;1.90;;
65558;SDS011;52203;51.998;5.140;2022-10-16T03:40:49;4.07;;;1.77;;
65558;SDS011;52203;51.998;5.140;2022-10-16T03:43:15;5.00;;;2.10;;
65558;SDS011;52203;51.998;5.140;2022-10-16T03:45:40;3.95;;;1.90;;
65558;SDS011;52203;51.998;5.140;2022-10-16T03:48:06;3.70;;;1.88;;
65558;SDS011;52203;51.998;5.140;2022-10-16T03:50:32;4.00;;;1.80;;
65558;SDS011;52203;51.998;5.140;2022-10-16T03:52:57;3.55;;;1.70;;
65558;SDS011;52203;51.998;5.140;2022-10-16T03:55:23;3.45;;;1.70;;
65558;SDS011;52203;51.998;5.140;2022-10-16T03:57:48;3.55;;;2.05;;
65558;SDS011;52203;51.998;5.140;2022-10-16T04:00:14;4.50;;;2.00;;
65558;SDS011;52203;51.998;5.140;2022-10-16T04:02:39;3.55;;;2.00;;
65558;SDS011;52203;51.998;5.140;2022-10-16T04:05:05;3.80;;;1.70;;
65558;SDS011;52203;51.998;5.140;2022-10-16T04:07:31;2.88;;;1.70;;
65558;SDS011;52203;51.998;5.140;2022-10-16T04:09:57;4.97;;;2.00;;
65558;SDS011;52203;51.998;5.140;2022-10-16T04:12:24;6.10;;;2.20;;
65558;SDS011;52203;51.998;5.140;2022-10-16T04:14:50;3.67;;;1.98;;
65558;SDS011;52203;51.998;5.140;2022-10-16T04:17:16;5.10;;;2.25;;
65558;SDS011;52203;51.998;5.140;2022-10-16T04:19:41;3.30;;;1.73;;
65558;SDS011;52203;51.998;5.140;2022-10-16T04:22:07;4.72;;;2.10;;
65558;SDS011;52203;51.998;5.140;2022-10-16T04:24:32;3.75;;;2.05;;
65558;SDS011;52203;51.998;5.140;2022-10-16T04:26:58;4.60;;;1.80;;
65558;SDS011;52203;51.998;5.140;2022-10-16T04:29:23;4.22;;;1.98;;
65558;SDS011;52203;51.998;5.140;2022-10-16T04:31:49;3.55;;;1.75;;
65558;SDS011;52203;51.998;5.140;2022-10-16T04:34:14;3.72;;;1.92;;
65558;SDS011;52203;51.998;5.140;2022-10-16T04:36:40;3.05;;;1.90;;
65558;SDS011;52203;51.998;5.140;2022-10-16T04:39:05;6.22;;;1.90;;
65558;SDS011;52203;51.998;5.140;2022-10-16T04:41:31;2.95;;;1.60;;
65558;SDS011;52203;51.998;5.140;2022-10-16T04:43:57;3.05;;;1.73;;
65558;SDS011;52203;51.998;5.140;2022-10-16T04:46:22;3.95;;;1.83;;
65558;SDS011;52203;51.998;5.140;2022-10-16T04:48:48;3.85;;;1.85;;
65558;SDS011;52203;51.998;5.140;2022-10-16T04:51:13;3.90;;;2.03;;
65558;SDS011;52203;51.998;5.140;2022-10-16T04:53:39;2.30;;;1.70;;
65558;SDS011;52203;51.998;5.140;2022-10-16T04:56:04;5.85;;;2.38;;
65558;SDS011;52203;51.998;5.140;2022-10-16T04:58:30;2.28;;;1.38;;
65558;SDS011;52203;51.998;5.140;2022-10-16T05:00:56;5.35;;;2.10;;
65558;SDS011;52203;51.998;5.140;2022-10-16T05:03:21;3.63;;;1.88;;
65558;SDS011;52203;51.998;5.140;2022-10-16T05:05:47;3.95;;;1.92;;
65558;SDS011;52203;51.998;5.140;2022-10-16T05:08:13;3.83;;;2.05;;
65558;SDS011;52203;51.998;5.140;2022-10-16T05:10:40;2.88;;;1.98;;
65558;SDS011;52203;51.998;5.140;2022-10-16T05:13:07;4.63;;;2.30;;
65558;SDS011;52203;51.998;5.140;2022-10-16T05:15:33;6.72;;;2.42;;
65558;SDS011;52203;51.998;5.140;2022-10-16T05:17:59;4.68;;;2.25;;
65558;SDS011;52203;51.998;5.140;2022-10-16T05:20:24;2.97;;;1.85;;
65558;SDS011;52203;51.998;5.140;2022-10-16T05:22:50;4.10;;;2.20;;
65558;SDS011;52203;51.998;5.140;2022-10-16T05:25:16;4.03;;;2.20;;
65558;SDS011;52203;51.998;5.140;2022-10-16T05:27:41;6.00;;;2.30;;
65558;SDS011;52203;51.998;5.140;2022-10-16T05:30:07;3.58;;;2.25;;
65558;SDS011;52203;51.998;5.140;2022-10-16T05:32:33;4.22;;;2.03;;
65558;SDS011;52203;51.998;5.140;2022-10-16T05:34:59;4.50;;;2.40;;
65558;SDS011;52203;51.998;5.140;2022-10-16T05:37:25;4.35;;;2.10;;
65558;SDS011;52203;51.998;5.140;2022-10-16T05:39:52;4.10;;;2.40;;
65558;SDS011;52203;51.998;5.140;2022-10-16T05:42:18;5.10;;;2.47;;
65558;SDS011;52203;51.998;5.140;2022-10-16T05:44:43;4.63;;;2.28;;
65558;SDS011;52203;51.998;5.140;2022-10-16T05:47:09;6.90;;;2.47;;
65558;SDS011;52203;51.998;5.140;2022-10-16T05:49:35;3.40;;;2.03;;
65558;SDS011;52203;51.998;5.140;2022-10-16T05:52:01;3.10;;;1.88;;
65558;SDS011;52203;51.998;5.140;2022-10-16T05:54:27;3.25;;;1.80;;
65558;SDS011;52203;51.998;5.140;2022-10-16T05:56:52;5.70;;;2.67;;
65558;SDS011;52203;51.998;5.140;2022-10-16T05:59:18;3.58;;;2.60;;
65558;SDS011;52203;51.998;5.140;2022-10-16T06:01:43;6.55;;;2.47;;
65558;SDS011;52203;51.998;5.140;2022-10-16T06:04:09;5.63;;;2.47;;
65558;SDS011;52203;51.998;5.140;2022-10-16T06:06:34;4.35;;;2.20;;
65558;SDS011;52203;51.998;5.140;2022-10-16T06:09:01;5.03;;;2.08;;
65558;SDS011;52203;51.998;5.140;2022-10-16T06:11:28;4.90;;;2.25;;
65558;SDS011;52203;51.998;5.140;2022-10-16T06:13:55;6.90;;;2.55;;
65558;SDS011;52203;51.998;5.140;2022-10-16T06:16:23;4.78;;;2.13;;
65558;SDS011;52203;51.998;5.140;2022-10-16T06:18:50;3.88;;;2.50;;
65558;SDS011;52203;51.998;5.140;2022-10-16T06:21:18;5.55;;;2.60;;
65558;SDS011;52203;51.998;5.140;2022-10-16T06:23:45;3.65;;;2.08;;
65558;SDS011;52203;51.998;5.140;2022-10-16T06:26:12;4.28;;;2.20;;
65558;SDS011;52203;51.998;5.140;2022-10-16T06:28:39;4.15;;;2.47;;
65558;SDS011;52203;51.998;5.140;2022-10-16T06:31:06;5.25;;;2.40;;
65558;SDS011;52203;51.998;5.140;2022-10-16T06:33:33;6.18;;;2.65;;
65558;SDS011;52203;51.998;5.140;2022-10-16T06:38:33;4.90;;;2.00;;
65558;SDS011;52203;51.998;5.140;2022-10-16T06:40:58;5.75;;;2.22;;
65558;SDS011;52203;51.998;5.140;2022-10-16T06:43:24;5.60;;;2.42;;
65558;SDS011;52203;51.998;5.140;2022-10-16T06:45:54;5.85;;;2.30;;
65558;SDS011;52203;51.998;5.140;2022-10-16T06:48:20;6.18;;;2.35;;
65558;SDS011;52203;51.998;5.140;2022-10-16T06:53:30;6.72;;;2.58;;
65558;SDS011;52203;51.998;5.140;2022-10-16T06:55:57;3.65;;;2.22;;
65558;SDS011;52203;51.998;5.140;2022-10-16T06:58:31;4.90;;;2.33;;
65558;SDS011;52203;51.998;5.140;2022-10-16T07:00:56;5.13;;;2.28;;
65558;SDS011;52203;51.998;5.140;2022-10-16T07:03:22;7.10;;;2.60;;
65558;SDS011;52203;51.998;5.140;2022-10-16T07:05:48;5.68;;;2.30;;
65558;SDS011;52203;51.998;5.140;2022-10-16T07:08:13;5.75;;;2.20;;
65558;SDS011;52203;51.998;5.140;2022-10-16T07:10:39;6.10;;;2.28;;
65558;SDS011;52203;51.998;5.140;2022-10-16T07:13:04;3.67;;;2.00;;
65558;SDS011;52203;51.998;5.140;2022-10-16T07:15:32;3.10;;;1.70;;
65558;SDS011;52203;51.998;5.140;2022-10-16T07:17:57;4.18;;;2.30;;
65558;SDS011;52203;51.998;5.140;2022-10-16T07:20:23;6.03;;;2.70;;
65558;SDS011;52203;51.998;5.140;2022-10-16T07:22:48;4.75;;;2.20;;
65558;SDS011;52203;51.998;5.140;2022-10-16T07:25:14;4.70;;;2.17;;
65558;SDS011;52203;51.998;5.140;2022-10-16T07:27:39;6.32;;;2.60;;
65558;SDS011;52203;51.998;5.140;2022-10-16T07:30:05;5.40;;;2.78;;
65558;SDS011;52203;51.998;5.140;2022-10-16T07:32:31;6.28;;;2.38;;
65558;SDS011;52203;51.998;5.140;2022-10-16T07:34:57;3.95;;;2.35;;
65558;SDS011;52203;51.998;5.140;2022-10-16T07:37:22;4.68;;;2.55;;
65558;SDS011;52203;51.998;5.140;2022-10-16T07:39:48;3.20;;;2.33;;
65558;SDS011;52203;51.998;5.140;2022-10-16T07:42:14;6.25;;;2.50;;
65558;SDS011;52203;51.998;5.140;2022-10-16T07:44:39;5.53;;;2.58;;
65558;SDS011;52203;51.998;5.140;2022-10-16T07:47:05;5.45;;;2.38;;
65558;SDS011;52203;51.998;5.140;2022-10-16T07:49:31;4.65;;;2.47;;
65558;SDS011;52203;51.998;5.140;2022-10-16T07:51:57;5.28;;;2.55;;
65558;SDS011;52203;51.998;5.140;2022-10-16T07:54:22;4.85;;;2.17;;
65558;SDS011;52203;51.998;5.140;2022-10-16T07:56:48;4.00;;;2.25;;
65558;SDS011;52203;51.998;5.140;2022-10-16T07:59:13;5.63;;;2.30;;
65558;SDS011;52203;51.998;5.140;2022-10-16T08:01:39;4.82;;;2.50;;
65558;SDS011;52203;51.998;5.140;2022-10-16T08:04:07;5.28;;;2.40;;
65558;SDS011;52203;51.998;5.140;2022-10-16T08:06:35;4.85;;;2.38;;
65558;SDS011;52203;51.998;5.140;2022-10-16T08:09:05;7.45;;;2.63;;
65558;SDS011;52203;51.998;5.140;2022-10-16T08:11:31;5.70;;;2.53;;
65558;SDS011;52203;51.998;5.140;2022-10-16T08:13:57;5.03;;;2.80;;
65558;SDS011;52203;51.998;5.140;2022-10-16T08:16:22;5.05;;;2.42;;
65558;SDS011;52203;51.998;5.140;2022-10-16T08:18:48;6.75;;;2.78;;
65558;SDS011;52203;51.998;5.140;2022-10-16T08:21:16;6.95;;;3.10;;
65558;SDS011;52203;51.998;5.140;2022-10-16T08:23:44;4.97;;;2.40;;
65558;SDS011;52203;51.998;5.140;2022-10-16T08:26:10;7.20;;;2.70;;
65558;SDS011;52203;51.998;5.140;2022-10-16T08:28:36;7.95;;;2.65;;
65558;SDS011;52203;51.998;5.140;2022-10-16T08:31:12;8.75;;;2.70;;
65558;SDS011;52203;51.998;5.140;2022-10-16T08:33:40;5.35;;;2.70;;
65558;SDS011;52203;51.998;5.140;2022-10-16T08:36:07;5.13;;;2.65;;
65558;SDS011;52203;51.998;5.140;2022-10-16T08:38:34;5.55;;;2.30;;
65558;SDS011;52203;51.998;5.140;2022-10-16T08:41:08;7.40;;;2.83;;
65558;SDS011;52203;51.998;5.140;2022-10-16T08:49:27;9.85;;;2.40;;
65558;SDS011;52203;51.998;5.140;2022-10-16T08:51:52;4.13;;;2.60;;
65558;SDS011;52203;51.998;5.140;2022-10-16T08:54:24;6.15;;;2.28;;
65558;SDS011;52203;51.998;5.140;2022-10-16T08:57:38;6.85;;;2.30;;
65558;SDS011;52203;51.998;5.140;2022-10-16T09:00:05;5.38;;;2.60;;
65558;SDS011;52203;51.998;5.140;2022-10-16T09:02:38;4.50;;;2.08;;
65558;SDS011;52203;51.998;5.140;2022-10-16T09:10:38;7.13;;;2.53;;
65558;SDS011;52203;51.998;5.140;2022-10-16T09:13:22;6.65;;;2.28;;
65558;SDS011;52203;51.998;5.140;2022-10-16T09:19:14;4.82;;;1.80;;
65558;SDS011;52203;51.998;5.140;2022-10-16T09:21:33;5.60;;;2.10;;
65558;SDS011;52203;51.998;5.140;2022-10-16T09:24:16;7.22;;;2.20;;
65558;SDS011;52203;51.998;5.140;2022-10-16T09:26:43;5.22;;;1.95;;
65558;SDS011;52203;51.998;5.140;2022-10-16T09:29:16;6.82;;;2.17;;
65558;SDS011;52203;51.998;5.140;2022-10-16T09:31:45;5.20;;;1.90;;
65558;SDS011;52203;51.998;5.140;2022-10-16T09:34:18;5.75;;;2.20;;
65558;SDS011;52203;51.998;5.140;2022-10-16T09:36:57;8.90;;;1.85;;
65558;SDS011;52203;51.998;5.140;2022-10-16T09:39:25;6.85;;;2.28;;
65558;SDS011;52203;51.998;5.140;2022-10-16T09:41:50;4.72;;;2.45;;
65558;SDS011;52203;51.998;5.140;2022-10-16T09:44:50;8.18;;;1.98;;
65558;SDS011;52203;51.998;5.140;2022-10-16T09:47:13;10.57;;;2.13;;
65558;SDS011;52203;51.998;5.140;2022-10-16T09:49:51;7.55;;;2.00;;
65558;SDS011;52203;51.998;5.140;2022-10-16T09:52:22;10.55;;;2.33;;
65558;SDS011;52203;51.998;5.140;2022-10-16T09:54:51;7.72;;;2.10;;
65558;SDS011;52203;51.998;5.140;2022-10-16T09:57:18;6.13;;;2.63;;
65558;SDS011;52203;51.998;5.140;2022-10-16T09:59:46;7.22;;;2.55;;
65558;SDS011;52203;51.998;5.140;2022-10-16T10:02:15;9.10;;;2.33;;
65558;SDS011;52203;51.998;5.140;2022-10-16T10:04:50;7.78;;;2.00;;
65558;SDS011;52203;51.998;5.140;2022-10-16T10:07:28;5.72;;;2.22;;
65558;SDS011;52203;51.998;5.140;2022-10-16T10:10:02;8.55;;;3.00;;
65558;SDS011;52203;51.998;5.140;2022-10-16T10:12:30;6.78;;;2.00;;
65558;SDS011;52203;51.998;5.140;2022-10-16T10:15:03;6.75;;;1.95;;
65558;SDS011;52203;51.998;5.140;2022-10-16T10:17:31;14.05;;;2.38;;
65558;SDS011;52203;51.998;5.140;2022-10-16T10:19:57;7.65;;;2.08;;
65558;SDS011;52203;51.998;5.140;2022-10-16T10:22:41;9.05;;;2.17;;
65558;SDS011;52203;51.998;5.140;2022-10-16T10:30:38;12.95;;;2.55;;
65558;SDS011;52203;51.998;5.140;2022-10-16T10:41:53;6.63;;;2.10;;
65558;SDS011;52203;51.998;5.140;2022-10-16T10:52:41;7.28;;;1.40;;
65558;SDS011;52203;51.998;5.140;2022-10-16T10:58:14;6.30;;;1.65;;
65558;SDS011;52203;51.998;5.140;2022-10-16T11:03:47;5.63;;;1.73;;
65558;SDS011;52203;51.998;5.140;2022-10-16T11:09:12;7.78;;;1.90;;
65558;SDS011;52203;51.998;5.140;2022-10-16T11:14:48;6.85;;;1.58;;
65558;SDS011;52203;51.998;5.140;2022-10-16T11:17:26;7.20;;;1.60;;
65558;SDS011;52203;51.998;5.140;2022-10-16T11:19:58;6.32;;;1.90;;
65558;SDS011;52203;51.998;5.140;2022-10-16T11:22:37;7.30;;;1.70;;
65558;SDS011;52203;51.998;5.140;2022-10-16T11:25:22;9.05;;;1.50;;
65558;SDS011;52203;51.998;5.140;2022-10-16T11:28:10;7.72;;;1.52;;
65558;SDS011;52203;51.998;5.140;2022-10-16T11:30:46;9.85;;;1.63;;
65558;SDS011;52203;51.998;5.140;2022-10-16T11:39:04;5.80;;;1.40;;
65558;SDS011;52203;51.998;5.140;2022-10-16T11:41:50;7.38;;;2.03;;
65558;SDS011;52203;51.998;5.140;2022-10-16T11:50:04;7.43;;;1.30;;
65558;SDS011;52203;51.998;5.140;2022-10-16T11:52:55;7.60;;;2.20;;
65558;SDS011;52203;51.998;5.140;2022-10-16T11:58:13;10.30;;;1.95;;
65558;SDS011;52203;51.998;5.140;2022-10-16T12:06:40;4.30;;;1.30;;
65558;SDS011;52203;51.998;5.140;2022-10-16T12:09:28;4.80;;;1.00;;
65558;SDS011;52203;51.998;5.140;2022-10-16T12:12:00;5.25;;;1.77;;
65558;SDS011;52203;51.998;5.140;2022-10-16T12:17:02;12.00;;;1.65;;
65558;SDS011;52203;51.998;5.140;2022-10-16T12:20:00;6.72;;;1.67;;
65558;SDS011;52203;51.998;5.140;2022-10-16T12:22:51;7.32;;;2.10;;
65558;SDS011;52203;51.998;5.140;2022-10-16T12:25:36;6.45;;;1.52;;
65558;SDS011;52203;51.998;5.140;2022-10-16T12:30:40;9.77;;;2.25;;
65558;SDS011;52203;51.998;5.140;2022-10-16T12:33:20;7.18;;;1.58;;
65558;SDS011;52203;51.998;5.140;2022-10-16T12:35:48;11.32;;;1.92;;
65558;SDS011;52203;51.998;5.140;2022-10-16T12:40:43;7.68;;;1.65;;
65558;SDS011;52203;51.998;5.140;2022-10-16T12:43:23;9.90;;;1.70;;
65558;SDS011;52203;51.998;5.140;2022-10-16T12:48:35;6.47;;;1.67;;
65558;SDS011;52203;51.998;5.140;2022-10-16T12:51:09;7.68;;;1.40;;
65558;SDS011;52203;51.998;5.140;2022-10-16T12:53:36;11.68;;;2.00;;
65558;SDS011;52203;51.998;5.140;2022-10-16T12:56:22;7.82;;;1.75;;
65558;SDS011;52203;51.998;5.140;2022-10-16T12:58:58;8.77;;;1.52;;
65558;SDS011;52203;51.998;5.140;2022-10-16T13:07:46;8.13;;;1.50;;
65558;SDS011;52203;51.998;5.140;2022-10-16T13:10:27;7.88;;;1.55;;
65558;SDS011;52203;51.998;5.140;2022-10-16T13:13:21;5.80;;;1.70;;
65558;SDS011;52203;51.998;5.140;2022-10-16T13:21:41;7.97;;;1.60;;
65558;SDS011;52203;51.998;5.140;2022-10-16T13:29:22;7.72;;;1.33;;
65558;SDS011;52203;51.998;5.140;2022-10-16T13:31:54;8.45;;;1.50;;
65558;SDS011;52203;51.998;5.140;2022-10-16T13:34:20;8.70;;;1.80;;
65558;SDS011;52203;51.998;5.140;2022-10-16T13:36:48;8.40;;;1.33;;
65558;SDS011;52203;51.998;5.140;2022-10-16T13:39:21;8.55;;;1.75;;
65558;SDS011;52203;51.998;5.140;2022-10-16T13:44:44;6.45;;;1.30;;
65558;SDS011;52203;51.998;5.140;2022-10-16T13:49:42;9.10;;;1.38;;
65558;SDS011;52203;51.998;5.140;2022-10-16T13:52:18;8.98;;;1.48;;
65558;SDS011;52203;51.998;5.140;2022-10-16T13:54:44;13.27;;;2.30;;
65558;SDS011;52203;51.998;5.140;2022-10-16T13:57:14;6.88;;;1.80;;
65558;SDS011;52203;51.998;5.140;2022-10-16T13:59:40;8.68;;;1.80;;
65558;SDS011;52203;51.998;5.140;2022-10-16T14:04:47;6.40;;;1.83;;
65558;SDS011;52203;51.998;5.140;2022-10-16T14:07:14;7.93;;;2.00;;
65558;SDS011;52203;51.998;5.140;2022-10-16T14:09:49;8.57;;;1.77;;
65558;SDS011;52203;51.998;5.140;2022-10-16T14:12:15;8.25;;;1.50;;
65558;SDS011;52203;51.998;5.140;2022-10-16T14:14:43;6.47;;;1.40;;
65558;SDS011;52203;51.998;5.140;2022-10-16T14:17:14;5.50;;;1.23;;
65558;SDS011;52203;51.998;5.140;2022-10-16T14:19:45;8.65;;;1.70;;
65558;SDS011;52203;51.998;5.140;2022-10-16T14:27:59;5.90;;;1.40;;
65558;SDS011;52203;51.998;5.140;2022-10-16T14:30:27;6.57;;;1.55;;
65558;SDS011;52203;51.998;5.140;2022-10-16T14:32:55;6.85;;;1.63;;
65558;SDS011;52203;51.998;5.140;2022-10-16T14:35:27;8.55;;;1.60;;
65558;SDS011;52203;51.998;5.140;2022-10-16T14:37:55;5.03;;;1.52;;
65558;SDS011;52203;51.998;5.140;2022-10-16T14:40:45;7.25;;;1.60;;
65558;SDS011;52203;51.998;5.140;2022-10-16T14:43:14;6.45;;;1.52;;
65558;SDS011;52203;51.998;5.140;2022-10-16T14:46:06;6.43;;;1.48;;
65558;SDS011;52203;51.998;5.140;2022-10-16T14:48:47;7.13;;;1.70;;
65558;SDS011;52203;51.998;5.140;2022-10-16T14:51:25;5.93;;;1.65;;
65558;SDS011;52203;51.998;5.140;2022-10-16T14:53:51;7.78;;;1.67;;
65558;SDS011;52203;51.998;5.140;2022-10-16T14:56:18;6.65;;;1.48;;
65558;SDS011;52203;51.998;5.140;2022-10-16T14:58:46;8.48;;;1.52;;
65558;SDS011;52203;51.998;5.140;2022-10-16T15:01:12;7.82;;;1.67;;
65558;SDS011;52203;51.998;5.140;2022-10-16T15:03:38;8.57;;;1.83;;
65558;SDS011;52203;51.998;5.140;2022-10-16T15:06:03;6.72;;;1.52;;
65558;SDS011;52203;51.998;5.140;2022-10-16T15:08:39;5.90;;;1.77;;
65558;SDS011;52203;51.998;5.140;2022-10-16T15:11:05;7.13;;;1.85;;
65558;SDS011;52203;51.998;5.140;2022-10-16T15:13:42;6.80;;;1.45;;
65558;SDS011;52203;51.998;5.140;2022-10-16T15:16:12;5.20;;;1.70;;
65558;SDS011;52203;51.998;5.140;2022-10-16T15:18:39;7.53;;;1.70;;
65558;SDS011;52203;51.998;5.140;2022-10-16T15:21:05;9.13;;;2.15;;
65558;SDS011;52203;51.998;5.140;2022-10-16T15:23:31;6.40;;;1.50;;
65558;SDS011;52203;51.998;5.140;2022-10-16T15:25:57;13.10;;;1.77;;
65558;SDS011;52203;51.998;5.140;2022-10-16T15:28:23;6.50;;;1.65;;
65558;SDS011;52203;51.998;5.140;2022-10-16T15:30:51;8.07;;;1.65;;
65558;SDS011;52203;51.998;5.140;2022-10-16T15:33:19;4.82;;;1.15;;
65558;SDS011;52203;51.998;5.140;2022-10-16T15:35:47;3.08;;;1.40;;
65558;SDS011;52203;51.998;5.140;2022-10-16T15:38:15;6.13;;;1.65;;
65558;SDS011;52203;51.998;5.140;2022-10-16T15:40:41;6.90;;;1.90;;
65558;SDS011;52203;51.998;5.140;2022-10-16T15:43:07;6.57;;;1.48;;
65558;SDS011;52203;51.998;5.140;2022-10-16T15:45:33;3.30;;;1.20;;
65558;SDS011;52203;51.998;5.140;2022-10-16T15:47:58;7.25;;;1.42;;
65558;SDS011;52203;51.998;5.140;2022-10-16T15:50:24;5.88;;;1.60;;
65558;SDS011;52203;51.998;5.140;2022-10-16T15:52:50;4.15;;;1.40;;
65558;SDS011;52203;51.998;5.140;2022-10-16T15:55:16;4.30;;;1.48;;
65558;SDS011;52203;51.998;5.140;2022-10-16T15:57:43;6.65;;;1.55;;
65558;SDS011;52203;51.998;5.140;2022-10-16T16:00:11;4.55;;;1.42;;
65558;SDS011;52203;51.998;5.140;2022-10-16T16:02:38;5.43;;;1.38;;
65558;SDS011;52203;51.998;5.140;2022-10-16T16:05:05;9.48;;;1.67;;
65558;SDS011;52203;51.998;5.140;2022-10-16T16:07:35;3.88;;;1.35;;
65558;SDS011;52203;51.998;5.140;2022-10-16T16:10:02;7.07;;;1.42;;
65558;SDS011;52203;51.998;5.140;2022-10-16T16:12:29;6.47;;;1.60;;
65558;SDS011;52203;51.998;5.140;2022-10-16T16:14:55;8.43;;;1.70;;
65558;SDS011;52203;51.998;5.140;2022-10-16T16:17:20;5.30;;;1.50;;
65558;SDS011;52203;51.998;5.140;2022-10-16T16:19:46;6.10;;;1.70;;
65558;SDS011;52203;51.998;5.140;2022-10-16T16:22:12;3.90;;;1.70;;
65558;SDS011;52203;51.998;5.140;2022-10-16T16:24:37;8.18;;;2.03;;
65558;SDS011;52203;51.998;5.140;2022-10-16T16:27:03;4.45;;;1.95;;
65558;SDS011;52203;51.998;5.140;2022-10-16T16:29:28;6.32;;;2.20;;
65558;SDS011;52203;51.998;5.140;2022-10-16T16:31:54;6.85;;;1.85;;
65558;SDS011;52203;51.998;5.140;2022-10-16T16:34:25;6.82;;;2.20;;
65558;SDS011;52203;51.998;5.140;2022-10-16T16:36:52;5.80;;;2.20;;
65558;SDS011;52203;51.998;5.140;2022-10-16T16:39:18;6.32;;;2.10;;
65558;SDS011;52203;51.998;5.140;2022-10-16T16:41:44;5.55;;;2.00;;
65558;SDS011;52203;51.998;5.140;2022-10-16T16:44:13;6.15;;;2.08;;
65558;SDS011;52203;51.998;5.140;2022-10-16T16:46:39;8.60;;;2.22;;
65558;SDS011;52203;51.998;5.140;2022-10-16T16:49:05;8.82;;;2.88;;
65558;SDS011;52203;51.998;5.140;2022-10-16T16:51:32;8.75;;;2.80;;
65558;SDS011;52203;51.998;5.140;2022-10-16T16:53:58;8.30;;;2.35;;
65558;SDS011;52203;51.998;5.140;2022-10-16T16:56:24;8.05;;;2.30;;
65558;SDS011;52203;51.998;5.140;2022-10-16T16:58:53;6.50;;;2.22;;
65558;SDS011;52203;51.998;5.140;2022-10-16T17:01:20;5.55;;;2.40;;
65558;SDS011;52203;51.998;5.140;2022-10-16T17:03:48;6.18;;;2.50;;
65558;SDS011;52203;51.998;5.140;2022-10-16T17:06:17;11.73;;;2.70;;
65558;SDS011;52203;51.998;5.140;2022-10-16T17:08:44;6.43;;;2.38;;
65558;SDS011;52203;51.998;5.140;2022-10-16T17:11:23;7.97;;;2.55;;
65558;SDS011;52203;51.998;5.140;2022-10-16T17:13:51;6.95;;;2.38;;
65558;SDS011;52203;51.998;5.140;2022-10-16T17:16:19;5.68;;;2.30;;